sensor_id;sensor_type;location;lat;lon;timestamp;pressure;altitude;pressure_sealevel;temperature;humidity
36222;BME280;22266;52.340;4.962;2022-11-11T00:02:35;102665.13;;;11.75;78.37
36222;BME280;22266;52.340;4.962;2022-11-11T00:05:20;102672.88;;;11.78;78.46
36222;BME280;22266;52.340;4.962;2022-11-11T00:08:06;102677.31;;;11.79;78.22
36222;BME280;22266;52.340;4.962;2022-11-11T00:10:51;102676.53;;;11.69;78.52
36222;BME280;22266;52.340;4.962;2022-11-11T00:13:36;102675.38;;;11.72;78.51
36222;BME280;22266;52.340;4.962;2022-11-11T00:16:22;102682.16;;;11.58;78.77
36222;BME280;22266;52.340;4.962;2022-11-11T00:19:09;102682.34;;;11.38;79.50
36222;BME280;22266;52.340;4.962;2022-11-11T00:22:20;102672.19;;;11.32;79.80
36222;BME280;22266;52.340;4.962;2022-11-11T00:25:24;102674.41;;;11.37;79.73
36222;BME280;22266;52.340;4.962;2022-11-11T00:28:10;102670.13;;;11.26;79.87
36222;BME280;22266;52.340;4.962;2022-11-11T00:31:09;102669.56;;;11.23;80.29
36222;BME280;22266;52.340;4.962;2022-11-11T00:33:54;102675.63;;;11.25;80.15
36222;BME280;22266;52.340;4.962;2022-11-11T00:36:39;102666.72;;;11.24;80.17
36222;BME280;22266;52.340;4.962;2022-11-11T00:39:28;102669.66;;;11.31;80.01
36222;BME280;22266;52.340;4.962;2022-11-11T00:42:13;102660.72;;;11.30;79.53
36222;BME280;22266;52.340;4.962;2022-11-11T00:44:58;102657.47;;;11.27;79.81
36222;BME280;22266;52.340;4.962;2022-11-11T00:47:43;102648.78;;;11.15;79.93
36222;BME280;22266;52.340;4.962;2022-11-11T00:50:47;102646.06;;;11.15;80.27
36222;BME280;22266;52.340;4.962;2022-11-11T00:53:44;102659.09;;;11.20;79.98
36222;BME280;22266;52.340;4.962;2022-11-11T00:56:30;102652.22;;;11.07;80.19
36222;BME280;22266;52.340;4.962;2022-11-11T00:59:15;102656.06;;;11.05;80.53
36222;BME280;22266;52.340;4.962;2022-11-11T01:02:00;102659.59;;;11.05;80.84
36222;BME280;22266;52.340;4.962;2022-11-11T01:04:45;102660.44;;;11.06;80.24
36222;BME280;22266;52.340;4.962;2022-11-11T01:07:30;102661.75;;;11.02;80.34
36222;BME280;22266;52.340;4.962;2022-11-11T01:10:16;102668.16;;;11.01;80.06
36222;BME280;22266;52.340;4.962;2022-11-11T01:13:23;102674.09;;;11.04;80.47
36222;BME280;22266;52.340;4.962;2022-11-11T01:16:20;102675.22;;;11.02;80.30
36222;BME280;22266;52.340;4.962;2022-11-11T01:19:05;102685.16;;;11.01;80.48
36222;BME280;22266;52.340;4.962;2022-11-11T01:21:50;102693.56;;;10.98;80.26
36222;BME280;22266;52.340;4.962;2022-11-11T01:24:36;102693.88;;;10.95;80.61
36222;BME280;22266;52.340;4.962;2022-11-11T01:27:22;102695.25;;;10.99;80.68
36222;BME280;22266;52.340;4.962;2022-11-11T01:30:07;102690.41;;;11.03;80.39
36222;BME280;22266;52.340;4.962;2022-11-11T01:32:53;102692.69;;;10.98;80.23
36222;BME280;22266;52.340;4.962;2022-11-11T01:35:40;102692.78;;;10.88;80.52
36222;BME280;22266;52.340;4.962;2022-11-11T01:38:25;102687.94;;;10.92;80.62
36222;BME280;22266;52.340;4.962;2022-11-11T01:41:13;102683.63;;;10.99;80.58
36222;BME280;22266;52.340;4.962;2022-11-11T01:44:44;102677.25;;;11.00;80.62
36222;BME280;22266;52.340;4.962;2022-11-11T01:47:30;102678.53;;;10.96;80.39
36222;BME280;22266;52.340;4.962;2022-11-11T01:50:56;102683.78;;;10.97;80.54
36222;BME280;22266;52.340;4.962;2022-11-11T01:53:42;102671.13;;;10.98;80.32
36222;BME280;22266;52.340;4.962;2022-11-11T01:56:28;102666.47;;;11.00;80.46
36222;BME280;22266;52.340;4.962;2022-11-11T01:59:15;102667.13;;;11.02;80.10
36222;BME280;22266;52.340;4.962;2022-11-11T02:02:06;102662.09;;;10.99;79.91
36222;BME280;22266;52.340;4.962;2022-11-11T02:04:54;102660.69;;;10.95;80.14
36222;BME280;22266;52.340;4.962;2022-11-11T02:08:00;102658.59;;;10.88;80.13
36222;BME280;22266;52.340;4.962;2022-11-11T02:10:47;102657.75;;;10.88;80.62
36222;BME280;22266;52.340;4.962;2022-11-11T02:13:37;102654.22;;;10.87;80.54
36222;BME280;22266;52.340;4.962;2022-11-11T02:16:41;102649.41;;;10.81;80.66
36222;BME280;22266;52.340;4.962;2022-11-11T02:19:55;102647.34;;;10.75;80.73
36222;BME280;22266;52.340;4.962;2022-11-11T02:22:47;102653.31;;;10.69;81.61
36222;BME280;22266;52.340;4.962;2022-11-11T02:25:37;102653.47;;;10.68;81.66
36222;BME280;22266;52.340;4.962;2022-11-11T02:28:24;102649.78;;;10.69;81.48
36222;BME280;22266;52.340;4.962;2022-11-11T02:31:11;102653.03;;;10.72;80.99
36222;BME280;22266;52.340;4.962;2022-11-11T02:33:57;102660.56;;;10.69;81.88
36222;BME280;22266;52.340;4.962;2022-11-11T02:36:43;102656.88;;;10.70;81.37
36222;BME280;22266;52.340;4.962;2022-11-11T02:39:29;102663.25;;;10.69;81.47
36222;BME280;22266;52.340;4.962;2022-11-11T02:42:34;102669.91;;;10.74;81.45
36222;BME280;22266;52.340;4.962;2022-11-11T02:45:20;102669.91;;;10.74;81.01
36222;BME280;22266;52.340;4.962;2022-11-11T02:48:05;102678.94;;;10.73;80.86
36222;BME280;22266;52.340;4.962;2022-11-11T02:50:50;102682.72;;;10.62;81.08
36222;BME280;22266;52.340;4.962;2022-11-11T02:53:35;102676.47;;;10.62;81.62
36222;BME280;22266;52.340;4.962;2022-11-11T02:56:20;102692.47;;;10.63;81.45
36222;BME280;22266;52.340;4.962;2022-11-11T02:59:25;102692.88;;;10.69;81.51
36222;BME280;22266;52.340;4.962;2022-11-11T03:02:10;102703.34;;;10.72;81.57
36222;BME280;22266;52.340;4.962;2022-11-11T03:04:57;102702.13;;;10.66;81.37
36222;BME280;22266;52.340;4.962;2022-11-11T03:07:41;102713.03;;;10.64;81.43
36222;BME280;22266;52.340;4.962;2022-11-11T03:10:27;102706.66;;;10.66;81.82
36222;BME280;22266;52.340;4.962;2022-11-11T03:13:13;102716.13;;;10.70;81.45
36222;BME280;22266;52.340;4.962;2022-11-11T03:15:58;102718.28;;;10.66;81.64
36222;BME280;22266;52.340;4.962;2022-11-11T03:18:43;102727.03;;;10.68;81.63
36222;BME280;22266;52.340;4.962;2022-11-11T03:21:28;102721.25;;;10.63;81.53
36222;BME280;22266;52.340;4.962;2022-11-11T03:24:33;102735.50;;;10.73;81.59
36222;BME280;22266;52.340;4.962;2022-11-11T03:27:37;102728.16;;;10.75;81.55
36222;BME280;22266;52.340;4.962;2022-11-11T03:30:22;102727.84;;;10.78;81.52
36222;BME280;22266;52.340;4.962;2022-11-11T03:33:08;102717.47;;;10.83;81.05
36222;BME280;22266;52.340;4.962;2022-11-11T03:35:53;102720.91;;;10.76;81.64
36222;BME280;22266;52.340;4.962;2022-11-11T03:38:38;102715.78;;;10.82;81.21
36222;BME280;22266;52.340;4.962;2022-11-11T03:41:23;102717.38;;;10.75;80.96
36222;BME280;22266;52.340;4.962;2022-11-11T03:44:07;102718.97;;;10.68;81.07
36222;BME280;22266;52.340;4.962;2022-11-11T03:46:56;102718.41;;;10.64;81.39
36222;BME280;22266;52.340;4.962;2022-11-11T03:49:41;102721.66;;;10.68;81.56
36222;BME280;22266;52.340;4.962;2022-11-11T03:52:29;102717.53;;;10.74;81.31
36222;BME280;22266;52.340;4.962;2022-11-11T03:55:14;102722.94;;;10.64;81.47
36222;BME280;22266;52.340;4.962;2022-11-11T03:57:59;102710.44;;;10.73;81.41
36222;BME280;22266;52.340;4.962;2022-11-11T04:00:44;102718.66;;;10.71;81.38
36222;BME280;22266;52.340;4.962;2022-11-11T04:03:29;102702.56;;;10.61;81.62
36222;BME280;22266;52.340;4.962;2022-11-11T04:06:33;102697.69;;;10.65;81.26
36222;BME280;22266;52.340;4.962;2022-11-11T04:09:37;102682.09;;;10.69;81.66
36222;BME280;22266;52.340;4.962;2022-11-11T04:12:41;102684.41;;;10.63;81.31
36222;BME280;22266;52.340;4.962;2022-11-11T04:15:45;102683.94;;;10.68;81.59
36222;BME280;22266;52.340;4.962;2022-11-11T04:18:49;102684.94;;;10.67;81.23
36222;BME280;22266;52.340;4.962;2022-11-11T04:21:53;102676.47;;;10.62;81.33
36222;BME280;22266;52.340;4.962;2022-11-11T04:24:38;102670.84;;;10.55;80.96
36222;BME280;22266;52.340;4.962;2022-11-11T04:27:41;102667.03;;;10.48;81.63
36222;BME280;22266;52.340;4.962;2022-11-11T04:30:26;102672.59;;;10.47;82.10
36222;BME280;22266;52.340;4.962;2022-11-11T04:33:11;102671.97;;;10.53;81.75
36222;BME280;22266;52.340;4.962;2022-11-11T04:35:56;102688.94;;;10.63;81.50
36222;BME280;22266;52.340;4.962;2022-11-11T04:38:41;102691.47;;;10.64;81.47
36222;BME280;22266;52.340;4.962;2022-11-11T04:41:44;102681.25;;;10.68;81.41
36222;BME280;22266;52.340;4.962;2022-11-11T04:44:50;102680.16;;;10.61;81.41
36222;BME280;22266;52.340;4.962;2022-11-11T04:48:09;102688.22;;;10.61;81.81
36222;BME280;22266;52.340;4.962;2022-11-11T04:50:56;102686.94;;;10.65;81.55
36222;BME280;22266;52.340;4.962;2022-11-11T04:53:41;102683.56;;;10.63;81.58
36222;BME280;22266;52.340;4.962;2022-11-11T04:56:26;102697.31;;;10.60;81.42
36222;BME280;22266;52.340;4.962;2022-11-11T04:59:30;102702.41;;;10.63;81.55
36222;BME280;22266;52.340;4.962;2022-11-11T05:02:15;102699.31;;;10.58;81.46
36222;BME280;22266;52.340;4.962;2022-11-11T05:05:19;102702.47;;;10.53;81.65
36222;BME280;22266;52.340;4.962;2022-11-11T05:08:04;102705.56;;;10.58;81.69
36222;BME280;22266;52.340;4.962;2022-11-11T05:11:08;102707.06;;;10.61;81.73
36222;BME280;22266;52.340;4.962;2022-11-11T05:13:54;102710.88;;;10.68;81.75
36222;BME280;22266;52.340;4.962;2022-11-11T05:16:58;102701.69;;;10.61;81.81
36222;BME280;22266;52.340;4.962;2022-11-11T05:20:02;102702.13;;;10.66;81.67
36222;BME280;22266;52.340;4.962;2022-11-11T05:23:06;102690.91;;;10.61;81.11
36222;BME280;22266;52.340;4.962;2022-11-11T05:25:51;102691.94;;;10.60;81.34
36222;BME280;22266;52.340;4.962;2022-11-11T05:28:36;102694.06;;;10.56;81.31
36222;BME280;22266;52.340;4.962;2022-11-11T05:31:20;102694.81;;;10.49;82.15
36222;BME280;22266;52.340;4.962;2022-11-11T05:34:06;102699.63;;;10.55;82.20
36222;BME280;22266;52.340;4.962;2022-11-11T05:36:51;102703.16;;;10.55;82.18
36222;BME280;22266;52.340;4.962;2022-11-11T05:39:35;102704.53;;;10.59;81.83
36222;BME280;22266;52.340;4.962;2022-11-11T05:42:20;102704.28;;;10.53;81.61
36222;BME280;22266;52.340;4.962;2022-11-11T05:45:06;102701.16;;;10.57;81.84
36222;BME280;22266;52.340;4.962;2022-11-11T05:47:51;102707.41;;;10.58;81.48
36222;BME280;22266;52.340;4.962;2022-11-11T05:50:36;102713.88;;;10.65;81.38
36222;BME280;22266;52.340;4.962;2022-11-11T05:53:25;102714.31;;;10.60;81.11
36222;BME280;22266;52.340;4.962;2022-11-11T05:56:10;102716.78;;;10.54;81.77
36222;BME280;22266;52.340;4.962;2022-11-11T05:58:55;102717.63;;;10.54;81.44
36222;BME280;22266;52.340;4.962;2022-11-11T06:01:40;102722.03;;;10.46;81.63
36222;BME280;22266;52.340;4.962;2022-11-11T06:04:25;102715.31;;;10.59;81.83
36222;BME280;22266;52.340;4.962;2022-11-11T06:07:10;102725.91;;;10.71;81.47
36222;BME280;22266;52.340;4.962;2022-11-11T06:09:55;102736.97;;;10.68;81.41
36222;BME280;22266;52.340;4.962;2022-11-11T06:13:00;102730.03;;;10.65;80.94
36222;BME280;22266;52.340;4.962;2022-11-11T06:15:55;102722.56;;;10.59;81.02
36222;BME280;22266;52.340;4.962;2022-11-11T06:18:41;102725.25;;;10.59;81.43
36222;BME280;22266;52.340;4.962;2022-11-11T06:21:26;102734.56;;;10.64;81.37
36222;BME280;22266;52.340;4.962;2022-11-11T06:24:11;102743.19;;;10.68;81.11
36222;BME280;22266;52.340;4.962;2022-11-11T06:26:56;102743.38;;;10.57;81.04
36222;BME280;22266;52.340;4.962;2022-11-11T06:29:41;102737.97;;;10.67;81.26
36222;BME280;22266;52.340;4.962;2022-11-11T06:32:27;102754.97;;;10.67;80.68
36222;BME280;22266;52.340;4.962;2022-11-11T06:35:12;102758.13;;;10.53;81.11
36222;BME280;22266;52.340;4.962;2022-11-11T06:37:57;102751.50;;;10.47;81.41
36222;BME280;22266;52.340;4.962;2022-11-11T06:40:42;102757.44;;;10.51;81.33
36222;BME280;22266;52.340;4.962;2022-11-11T06:43:28;102750.22;;;10.51;81.42
36222;BME280;22266;52.340;4.962;2022-11-11T06:46:19;102755.59;;;10.51;81.17
36222;BME280;22266;52.340;4.962;2022-11-11T06:49:06;102766.97;;;10.45;81.53
36222;BME280;22266;52.340;4.962;2022-11-11T06:51:51;102766.09;;;10.54;81.49
36222;BME280;22266;52.340;4.962;2022-11-11T06:54:35;102768.34;;;10.59;81.37
36222;BME280;22266;52.340;4.962;2022-11-11T06:57:23;102769.47;;;10.56;80.96
36222;BME280;22266;52.340;4.962;2022-11-11T07:00:09;102766.78;;;10.56;80.84
36222;BME280;22266;52.340;4.962;2022-11-11T07:02:54;102762.94;;;10.59;80.80
36222;BME280;22266;52.340;4.962;2022-11-11T07:05:41;102755.56;;;10.61;80.78
36222;BME280;22266;52.340;4.962;2022-11-11T07:08:26;102758.81;;;10.64;80.74
36222;BME280;22266;52.340;4.962;2022-11-11T07:11:12;102755.44;;;10.62;81.03
36222;BME280;22266;52.340;4.962;2022-11-11T07:14:03;102762.69;;;10.52;80.70
36222;BME280;22266;52.340;4.962;2022-11-11T07:16:48;102754.19;;;10.47;81.13
36222;BME280;22266;52.340;4.962;2022-11-11T07:19:33;102759.75;;;10.46;81.05
36222;BME280;22266;52.340;4.962;2022-11-11T07:22:18;102747.56;;;10.42;81.00
36222;BME280;22266;52.340;4.962;2022-11-11T07:25:04;102760.31;;;10.39;81.51
36222;BME280;22266;52.340;4.962;2022-11-11T07:27:49;102762.72;;;10.43;81.26
36222;BME280;22266;52.340;4.962;2022-11-11T07:30:41;102767.81;;;10.46;81.14
36222;BME280;22266;52.340;4.962;2022-11-11T07:33:26;102749.94;;;10.45;81.60
36222;BME280;22266;52.340;4.962;2022-11-11T07:36:11;102768.66;;;10.46;80.59
36222;BME280;22266;52.340;4.962;2022-11-11T07:38:56;102772.66;;;10.32;81.30
36222;BME280;22266;52.340;4.962;2022-11-11T07:41:41;102775.19;;;10.24;81.76
36222;BME280;22266;52.340;4.962;2022-11-11T07:44:26;102780.59;;;10.34;81.76
36222;BME280;22266;52.340;4.962;2022-11-11T07:47:10;102780.31;;;10.27;81.74
36222;BME280;22266;52.340;4.962;2022-11-11T07:49:55;102788.81;;;10.32;81.70
36222;BME280;22266;52.340;4.962;2022-11-11T07:52:47;102805.78;;;10.43;81.51
36222;BME280;22266;52.340;4.962;2022-11-11T07:55:32;102806.09;;;10.30;80.93
36222;BME280;22266;52.340;4.962;2022-11-11T07:58:17;102814.88;;;10.22;81.85
36222;BME280;22266;52.340;4.962;2022-11-11T08:01:02;102812.47;;;10.19;82.11
36222;BME280;22266;52.340;4.962;2022-11-11T08:03:52;102806.09;;;10.30;81.82
36222;BME280;22266;52.340;4.962;2022-11-11T08:06:37;102815.41;;;10.16;81.50
36222;BME280;22266;52.340;4.962;2022-11-11T08:09:22;102813.72;;;10.15;82.15
36222;BME280;22266;52.340;4.962;2022-11-11T08:12:08;102821.38;;;10.20;82.20
36222;BME280;22266;52.340;4.962;2022-11-11T08:15:11;102826.47;;;10.32;81.45
36222;BME280;22266;52.340;4.962;2022-11-11T08:17:56;102824.63;;;10.33;81.64
36222;BME280;22266;52.340;4.962;2022-11-11T08:20:41;102825.53;;;10.33;81.52
36222;BME280;22266;52.340;4.962;2022-11-11T08:23:31;102838.25;;;10.31;80.83
36222;BME280;22266;52.340;4.962;2022-11-11T08:26:36;102837.84;;;10.26;81.25
36222;BME280;22266;52.340;4.962;2022-11-11T08:29:21;102836.25;;;10.24;81.40
36222;BME280;22266;52.340;4.962;2022-11-11T08:32:06;102830.44;;;10.19;81.65
36222;BME280;22266;52.340;4.962;2022-11-11T08:34:51;102840.66;;;10.15;81.54
36222;BME280;22266;52.340;4.962;2022-11-11T08:37:36;102837.09;;;10.24;81.32
36222;BME280;22266;52.340;4.962;2022-11-11T08:40:21;102837.13;;;10.34;81.26
36222;BME280;22266;52.340;4.962;2022-11-11T08:43:06;102838.53;;;10.28;81.29
36222;BME280;22266;52.340;4.962;2022-11-11T08:45:52;102848.59;;;10.26;81.22
36222;BME280;22266;52.340;4.962;2022-11-11T08:48:37;102855.00;;;10.25;80.89
36222;BME280;22266;52.340;4.962;2022-11-11T08:51:22;102846.03;;;10.25;81.56
36222;BME280;22266;52.340;4.962;2022-11-11T08:54:07;102860.50;;;10.33;81.20
36222;BME280;22266;52.340;4.962;2022-11-11T08:56:52;102861.94;;;10.37;80.93
36222;BME280;22266;52.340;4.962;2022-11-11T08:59:37;102869.41;;;10.44;81.29
36222;BME280;22266;52.340;4.962;2022-11-11T09:02:22;102876.66;;;10.43;80.77
36222;BME280;22266;52.340;4.962;2022-11-11T09:05:07;102877.63;;;10.52;80.75
36222;BME280;22266;52.340;4.962;2022-11-11T09:07:52;102874.50;;;10.47;80.57
36222;BME280;22266;52.340;4.962;2022-11-11T09:10:37;102879.19;;;10.45;80.63
36222;BME280;22266;52.340;4.962;2022-11-11T09:13:22;102888.25;;;10.44;80.84
36222;BME280;22266;52.340;4.962;2022-11-11T09:16:08;102889.38;;;10.41;80.50
36222;BME280;22266;52.340;4.962;2022-11-11T09:18:53;102893.34;;;10.37;80.85
36222;BME280;22266;52.340;4.962;2022-11-11T09:21:38;102903.28;;;10.36;80.92
36222;BME280;22266;52.340;4.962;2022-11-11T09:24:23;102905.84;;;10.38;81.00
36222;BME280;22266;52.340;4.962;2022-11-11T09:27:09;102899.31;;;10.40;80.78
36222;BME280;22266;52.340;4.962;2022-11-11T09:29:54;102903.72;;;10.42;80.73
36222;BME280;22266;52.340;4.962;2022-11-11T09:32:39;102902.84;;;10.41;80.78
36222;BME280;22266;52.340;4.962;2022-11-11T09:35:24;102905.69;;;10.49;81.05
36222;BME280;22266;52.340;4.962;2022-11-11T09:38:09;102915.19;;;10.44;80.98
36222;BME280;22266;52.340;4.962;2022-11-11T09:40:56;102915.78;;;10.37;81.48
36222;BME280;22266;52.340;4.962;2022-11-11T09:43:55;102913.78;;;10.49;81.28
36222;BME280;22266;52.340;4.962;2022-11-11T09:46:46;102921.13;;;10.47;80.81
36222;BME280;22266;52.340;4.962;2022-11-11T09:49:53;102923.41;;;10.52;81.16
36222;BME280;22266;52.340;4.962;2022-11-11T09:52:50;102928.34;;;10.66;81.06
36222;BME280;22266;52.340;4.962;2022-11-11T09:55:43;102923.66;;;10.68;80.63
36222;BME280;22266;52.340;4.962;2022-11-11T09:58:40;102924.06;;;10.73;79.93
36222;BME280;22266;52.340;4.962;2022-11-11T10:01:33;102924.50;;;10.69;80.29
36222;BME280;22266;52.340;4.962;2022-11-11T10:04:59;102926.09;;;10.52;80.40
36222;BME280;22266;52.340;4.962;2022-11-11T10:08:00;102922.53;;;10.61;80.67
36222;BME280;22266;52.340;4.962;2022-11-11T10:10:51;102941.09;;;10.64;80.58
36222;BME280;22266;52.340;4.962;2022-11-11T10:13:37;102934.16;;;10.71;80.51
36222;BME280;22266;52.340;4.962;2022-11-11T10:19:34;102936.84;;;10.71;80.51
36222;BME280;22266;52.340;4.962;2022-11-11T10:22:33;102946.34;;;10.75;80.55
36222;BME280;22266;52.340;4.962;2022-11-11T10:25:20;102946.34;;;10.75;80.33
36222;BME280;22266;52.340;4.962;2022-11-11T10:28:14;102940.81;;;10.77;80.27
36222;BME280;22266;52.340;4.962;2022-11-11T10:31:02;102945.75;;;10.81;80.25
36222;BME280;22266;52.340;4.962;2022-11-11T10:34:11;102947.75;;;10.79;80.41
36222;BME280;22266;52.340;4.962;2022-11-11T10:36:58;102943.94;;;10.72;80.47
36222;BME280;22266;52.340;4.962;2022-11-11T10:40:02;102937.53;;;10.73;80.13
36222;BME280;22266;52.340;4.962;2022-11-11T10:42:51;102934.16;;;10.71;80.52
36222;BME280;22266;52.340;4.962;2022-11-11T10:45:54;102932.47;;;10.60;80.79
36222;BME280;22266;52.340;4.962;2022-11-11T10:51:35;102938.97;;;10.68;80.89
36222;BME280;22266;52.340;4.962;2022-11-11T10:54:34;102935.97;;;10.80;80.54
36222;BME280;22266;52.340;4.962;2022-11-11T10:57:35;102936.13;;;10.79;80.46
36222;BME280;22266;52.340;4.962;2022-11-11T11:00:22;102931.59;;;10.79;80.24
36222;BME280;22266;52.340;4.962;2022-11-11T11:03:31;102929.59;;;10.81;79.83
36222;BME280;22266;52.340;4.962;2022-11-11T11:06:22;102934.13;;;10.81;79.92
36222;BME280;22266;52.340;4.962;2022-11-11T11:09:36;102928.06;;;10.79;79.94
36222;BME280;22266;52.340;4.962;2022-11-11T11:12:30;102939.84;;;10.78;80.02
36222;BME280;22266;52.340;4.962;2022-11-11T11:15:22;102934.69;;;10.84;80.16
36222;BME280;22266;52.340;4.962;2022-11-11T11:18:13;102929.31;;;10.94;80.02
36222;BME280;22266;52.340;4.962;2022-11-11T11:21:04;102925.44;;;10.97;79.67
36222;BME280;22266;52.340;4.962;2022-11-11T11:23:49;102923.59;;;10.97;79.31
36222;BME280;22266;52.340;4.962;2022-11-11T11:26:46;102924.75;;;10.95;79.68
36222;BME280;22266;52.340;4.962;2022-11-11T11:29:34;102925.31;;;10.98;79.58
36222;BME280;22266;52.340;4.962;2022-11-11T11:32:30;102930.56;;;11.00;79.60
36222;BME280;22266;52.340;4.962;2022-11-11T11:35:39;102928.16;;;10.97;79.36
36222;BME280;22266;52.340;4.962;2022-11-11T11:38:43;102935.66;;;11.03;79.36
36222;BME280;22266;52.340;4.962;2022-11-11T11:41:44;102925.56;;;11.05;79.18
36222;BME280;22266;52.340;4.962;2022-11-11T11:44:36;102919.63;;;11.01;79.32
36222;BME280;22266;52.340;4.962;2022-11-11T11:47:39;102932.13;;;11.02;79.47
36222;BME280;22266;52.340;4.962;2022-11-11T11:50:46;102930.69;;;11.08;79.53
36222;BME280;22266;52.340;4.962;2022-11-11T11:53:51;102927.81;;;11.09;79.40
36222;BME280;22266;52.340;4.962;2022-11-11T11:56:44;102941.56;;;11.16;79.45
36222;BME280;22266;52.340;4.962;2022-11-11T12:00:20;102937.31;;;11.13;79.13
36222;BME280;22266;52.340;4.962;2022-11-11T12:03:05;102937.88;;;11.17;78.93
36222;BME280;22266;52.340;4.962;2022-11-11T12:06:01;102930.84;;;11.06;79.34
36222;BME280;22266;52.340;4.962;2022-11-11T12:09:04;102939.75;;;11.07;79.33
36222;BME280;22266;52.340;4.962;2022-11-11T12:11:58;102930.13;;;11.04;79.16
36222;BME280;22266;52.340;4.962;2022-11-11T12:18:06;102931.50;;;11.18;78.89
36222;BME280;22266;52.340;4.962;2022-11-11T12:21:08;102917.75;;;11.11;78.75
36222;BME280;22266;52.340;4.962;2022-11-11T12:24:03;102924.56;;;11.06;78.76
36222;BME280;22266;52.340;4.962;2022-11-11T12:27:03;102925.00;;;11.11;78.84
36222;BME280;22266;52.340;4.962;2022-11-11T12:30:11;102912.22;;;11.13;78.48
36222;BME280;22266;52.340;4.962;2022-11-11T12:33:10;102917.88;;;11.20;78.96
36222;BME280;22266;52.340;4.962;2022-11-11T12:36:06;102912.88;;;11.25;78.80
36222;BME280;22266;52.340;4.962;2022-11-11T12:38:57;102917.03;;;11.19;78.58
36222;BME280;22266;52.340;4.962;2022-11-11T12:51:00;102928.38;;;11.13;78.96
36222;BME280;22266;52.340;4.962;2022-11-11T13:00:14;102925.84;;;11.11;79.12
36222;BME280;22266;52.340;4.962;2022-11-11T13:03:18;102924.09;;;11.20;78.94
36222;BME280;22266;52.340;4.962;2022-11-11T13:06:22;102923.22;;;11.29;78.98
36222;BME280;22266;52.340;4.962;2022-11-11T13:09:22;102919.66;;;11.38;78.61
36222;BME280;22266;52.340;4.962;2022-11-11T13:12:38;102926.44;;;11.43;78.51
36222;BME280;22266;52.340;4.962;2022-11-11T13:15:27;102926.84;;;11.48;78.50
36222;BME280;22266;52.340;4.962;2022-11-11T13:18:18;102926.66;;;11.59;78.53
36222;BME280;22266;52.340;4.962;2022-11-11T13:21:07;102902.75;;;11.64;78.08
36222;BME280;22266;52.340;4.962;2022-11-11T13:23:53;102917.69;;;11.58;77.73
36222;BME280;22266;52.340;4.962;2022-11-11T13:26:55;102915.16;;;11.57;78.32
36222;BME280;22266;52.340;4.962;2022-11-11T13:30:22;102916.84;;;11.58;77.89
36222;BME280;22266;52.340;4.962;2022-11-11T13:33:20;102920.94;;;11.62;77.67
36222;BME280;22266;52.340;4.962;2022-11-11T13:36:11;102922.31;;;11.66;77.51
36222;BME280;22266;52.340;4.962;2022-11-11T13:39:02;102925.13;;;11.74;77.55
36222;BME280;22266;52.340;4.962;2022-11-11T13:41:50;102926.38;;;11.80;77.52
36222;BME280;22266;52.340;4.962;2022-11-11T13:44:48;102915.59;;;11.80;77.20
36222;BME280;22266;52.340;4.962;2022-11-11T13:47:39;102921.56;;;11.83;77.10
36222;BME280;22266;52.340;4.962;2022-11-11T13:50:30;102916.28;;;11.82;76.89
36222;BME280;22266;52.340;4.962;2022-11-11T13:53:28;102920.81;;;11.81;77.17
36222;BME280;22266;52.340;4.962;2022-11-11T13:56:24;102924.28;;;11.83;77.25
36222;BME280;22266;52.340;4.962;2022-11-11T13:59:20;102914.19;;;11.76;77.54
36222;BME280;22266;52.340;4.962;2022-11-11T14:02:17;102913.03;;;11.78;77.47
36222;BME280;22266;52.340;4.962;2022-11-11T14:07:55;102916.72;;;11.87;77.39
36222;BME280;22266;52.340;4.962;2022-11-11T14:10:56;102907.75;;;11.86;77.35
36222;BME280;22266;52.340;4.962;2022-11-11T14:13:42;102917.25;;;11.91;77.19
36222;BME280;22266;52.340;4.962;2022-11-11T14:25:25;102922.72;;;11.99;77.35
36222;BME280;22266;52.340;4.962;2022-11-11T14:28:32;102921.03;;;11.98;77.25
36222;BME280;22266;52.340;4.962;2022-11-11T14:37:27;102924.91;;;11.95;77.62
36222;BME280;22266;52.340;4.962;2022-11-11T14:40:26;102922.59;;;12.00;77.57
36222;BME280;22266;52.340;4.962;2022-11-11T14:46:15;102923.91;;;11.96;77.70
36222;BME280;22266;52.340;4.962;2022-11-11T14:49:03;102932.84;;;11.97;77.87
36222;BME280;22266;52.340;4.962;2022-11-11T14:51:51;102922.59;;;12.00;77.95
36222;BME280;22266;52.340;4.962;2022-11-11T14:54:53;102925.44;;;11.99;77.68
36222;BME280;22266;52.340;4.962;2022-11-11T14:57:45;102918.97;;;11.92;77.87
36222;BME280;22266;52.340;4.962;2022-11-11T15:00:42;102923.50;;;11.91;78.00
36222;BME280;22266;52.340;4.962;2022-11-11T15:03:36;102925.19;;;11.92;77.97
36222;BME280;22266;52.340;4.962;2022-11-11T15:06:45;102931.91;;;11.88;78.06
36222;BME280;22266;52.340;4.962;2022-11-11T15:09:44;102929.75;;;11.92;78.17
36222;BME280;22266;52.340;4.962;2022-11-11T15:13:00;102937.22;;;11.98;78.06
36222;BME280;22266;52.340;4.962;2022-11-11T15:15:50;102936.94;;;12.01;78.02
36222;BME280;22266;52.340;4.962;2022-11-11T15:19:08;102929.00;;;11.99;77.72
36222;BME280;22266;52.340;4.962;2022-11-11T15:25:27;102928.13;;;11.99;77.85
36222;BME280;22266;52.340;4.962;2022-11-11T15:28:39;102927.16;;;12.00;77.78
36222;BME280;22266;52.340;4.962;2022-11-11T15:31:45;102920.19;;;11.97;77.83
36222;BME280;22266;52.340;4.962;2022-11-11T15:34:41;102926.72;;;11.95;77.81
36222;BME280;22266;52.340;4.962;2022-11-11T15:37:28;102929.88;;;11.90;77.83
36222;BME280;22266;52.340;4.962;2022-11-11T15:40:18;102934.59;;;11.88;78.13
36222;BME280;22266;52.340;4.962;2022-11-11T15:43:04;102930.34;;;11.85;78.01
36222;BME280;22266;52.340;4.962;2022-11-11T15:45:52;102925.78;;;11.86;77.94
36222;BME280;22266;52.340;4.962;2022-11-11T15:48:41;102928.91;;;11.91;78.22